סלוניקי, יוון

12:48 PM EEST , אוגוסט 27, 2016 (GMT +0300)
Makedonia | | Change Station

Elev 13 ft 40.52 °N, 22.97 °E | Updated 28 minutes ago

Partly Cloudy
מעונן חלקית
82 ° F
Feels Like 82 ° F
צפ
10
רוח משתנה רוח from מערב

היום
High -- | Low -- ° F
--% Chance of Precip.
אתמול
High -- | Low -- ° F
Precip. -- אינץ
לחץ 30.12 אינץ
ראות 6.2 מיילים
עננים Few 2500 ft
טמפ עיבוי 50 ° F
לחות 32%
גשם 0.00 אינץ
עומק השלג Not available.
6:50 AM 8:07 PM
סהרון מחסיר, 26% visible
METAR LGTS 270920Z 27009KT 9999 FEW025 28/10 Q1020
לחץ 30.12 אינץ
ראות 6.2 מיילים
עננים Few 2500 ft
טמפ עיבוי 50 ° F
לחות 32%
גשם 0.00 אינץ
עומק השלג Not available.
6:50 AM 8:07 PM
סהרון מחסיר, 26% visible
METAR LGTS 270920Z 27009KT 9999 FEW025 28/10 Q1020

10-Day Weather Forecast

×

Almanac

אסטרונומיה

Aug. 27, 2016 Rise Set
Actual Time
Civil Twilight
Nautical Twilight
Astronomical Twilight
ירח
Length Of Visible Light
אורך היום
Tomorrow will be .
, % of the Moon is Illuminated

Today's Extremes

Country Highs Country Lows

Community

WunderPhotos

Upload Photos

1,935,313 photos uploaded!

WunderBlog® & News

Nearby

איכות האוויר

  איכות האוויר אינדקס איכות האוויר חומר מזהם
Not available.

עומק שלג

Station Depth Elevation

Earthquake Activity

עיר Distance Mag. Time & Date
Minimum magnitude displayed is 2.5.

Coastal Water Temperatures

מקום טמפרטורה

Stations

Nearby Weather Stations

Station Location טמפ רוח צוננת טמפ עיבוי לחות רוח Precip. Elev מעודכן Type